Terminal Aerodrome Forecast
Issued by NWS Cleveland, OH

Home | Current Version | Previous Version | Graphics & Text | Print | Product List | Glossary Off
Versions: 1 2 3 4 5 6 7 8 9 10 11 12 13 14 15 16 17 18 19 20 21 22 23 24 25 26 27

000
FTUS41 KCLE 271700 RRA
TAFMFD
TAF
KMFD 271742Z 2718/2818 35010KT 6SM -SN SCT012 OVC025
      TEMPO 2718/2721 3SM -SN BKN012
     FM272200 34005KT P6SM SCT012 BKN025
     FM280300 32003KT 5SM BR SCT025
     FM281500 22004KT P6SM SCT030 BKN150=

USA.gov is the U.S. government's official web portal to all federal, state and local government web resources and services.